sensor_id;sensor_type;location;lat;lon;timestamp;pressure;altitude;pressure_sealevel;temperature;humidity
77212;BME280;66206;0.000;0.000;2023-11-19T00:00:23;97825.34;;;20.49;30.77
77212;BME280;66206;0.000;0.000;2023-11-19T00:02:49;97820.57;;;20.42;30.97
77212;BME280;66206;0.000;0.000;2023-11-19T00:05:16;97812.69;;;20.55;30.83
77212;BME280;66206;0.000;0.000;2023-11-19T00:07:43;97806.24;;;20.60;30.86
77212;BME280;66206;0.000;0.000;2023-11-19T00:10:10;97799.86;;;20.44;30.80
77212;BME280;66206;0.000;0.000;2023-11-19T00:12:37;97783.93;;;20.54;30.74
77212;BME280;66206;0.000;0.000;2023-11-19T00:15:04;97778.41;;;20.44;30.92
77212;BME280;66206;0.000;0.000;2023-11-19T00:17:31;97782.85;;;20.56;30.89
77212;BME280;66206;0.000;0.000;2023-11-19T00:19:58;97789.00;;;20.57;30.82
77212;BME280;66206;0.000;0.000;2023-11-19T00:22:25;97795.33;;;20.35;30.82
77212;BME280;66206;0.000;0.000;2023-11-19T00:24:51;97795.13;;;20.43;30.83
77212;BME280;66206;0.000;0.000;2023-11-19T00:27:18;97790.65;;;20.57;30.76
77212;BME280;66206;0.000;0.000;2023-11-19T00:29:45;97785.59;;;20.36;30.98
77212;BME280;66206;0.000;0.000;2023-11-19T00:32:11;97781.93;;;20.45;30.82
77212;BME280;66206;0.000;0.000;2023-11-19T00:34:38;97781.04;;;20.45;30.88
77212;BME280;66206;0.000;0.000;2023-11-19T00:37:05;97774.40;;;20.37;30.84
77212;BME280;66206;0.000;0.000;2023-11-19T00:39:31;97764.45;;;20.56;30.78
77212;BME280;66206;0.000;0.000;2023-11-19T00:41:58;97763.84;;;20.46;30.84
77212;BME280;66206;0.000;0.000;2023-11-19T00:44:25;97759.98;;;20.45;30.86
77212;BME280;66206;0.000;0.000;2023-11-19T00:46:52;97751.29;;;20.50;30.92
77212;BME280;66206;0.000;0.000;2023-11-19T00:49:18;97744.98;;;20.44;30.86
77212;BME280;66206;0.000;0.000;2023-11-19T00:51:45;97739.30;;;20.44;30.79
77212;BME280;66206;0.000;0.000;2023-11-19T00:54:12;97739.36;;;20.45;30.75
77212;BME280;66206;0.000;0.000;2023-11-19T00:56:38;97735.91;;;20.61;30.82
77212;BME280;66206;0.000;0.000;2023-11-19T00:59:05;97734.12;;;20.52;30.87
77212;BME280;66206;0.000;0.000;2023-11-19T01:01:32;97728.98;;;20.38;30.86
77212;BME280;66206;0.000;0.000;2023-11-19T01:03:58;97723.07;;;20.43;30.79
77212;BME280;66206;0.000;0.000;2023-11-19T01:06:27;97717.91;;;20.40;30.78
77212;BME280;66206;0.000;0.000;2023-11-19T01:08:54;97729.33;;;20.35;30.86
77212;BME280;66206;0.000;0.000;2023-11-19T01:11:21;97734.56;;;20.52;30.89
77212;BME280;66206;0.000;0.000;2023-11-19T01:13:48;97738.60;;;20.54;30.80
77212;BME280;66206;0.000;0.000;2023-11-19T01:16:14;97744.42;;;20.52;30.77
77212;BME280;66206;0.000;0.000;2023-11-19T01:18:41;97742.34;;;20.40;30.85
77212;BME280;66206;0.000;0.000;2023-11-19T01:21:08;97748.77;;;20.46;30.89
77212;BME280;66206;0.000;0.000;2023-11-19T01:23:35;97743.25;;;20.41;30.89
77212;BME280;66206;0.000;0.000;2023-11-19T01:26:02;97738.69;;;20.50;30.90
77212;BME280;66206;0.000;0.000;2023-11-19T01:28:28;97734.68;;;20.55;30.90
77212;BME280;66206;0.000;0.000;2023-11-19T01:30:55;97729.87;;;20.53;30.93
77212;BME280;66206;0.000;0.000;2023-11-19T01:33:22;97728.99;;;20.27;30.94
77212;BME280;66206;0.000;0.000;2023-11-19T01:35:48;97725.57;;;20.31;30.89
77212;BME280;66206;0.000;0.000;2023-11-19T01:38:15;97727.57;;;20.47;30.87
77212;BME280;66206;0.000;0.000;2023-11-19T01:40:42;97724.36;;;20.62;30.71
77212;BME280;66206;0.000;0.000;2023-11-19T01:43:09;97718.54;;;20.44;30.99
77212;BME280;66206;0.000;0.000;2023-11-19T01:45:35;97712.00;;;20.35;30.90
77212;BME280;66206;0.000;0.000;2023-11-19T01:48:02;97704.60;;;20.49;30.79
77212;BME280;66206;0.000;0.000;2023-11-19T01:50:29;97703.88;;;20.40;30.76
77212;BME280;66206;0.000;0.000;2023-11-19T01:52:56;97688.75;;;20.35;30.77
77212;BME280;66206;0.000;0.000;2023-11-19T01:55:23;97677.98;;;20.51;30.83
77212;BME280;66206;0.000;0.000;2023-11-19T01:57:50;97670.84;;;20.63;30.70
77212;BME280;66206;0.000;0.000;2023-11-19T02:00:17;97653.32;;;20.42;30.90
77212;BME280;66206;0.000;0.000;2023-11-19T02:02:45;97645.97;;;20.39;30.95
77212;BME280;66206;0.000;0.000;2023-11-19T02:05:12;97641.17;;;20.48;30.81
77212;BME280;66206;0.000;0.000;2023-11-19T02:07:39;97651.41;;;20.42;30.89
77212;BME280;66206;0.000;0.000;2023-11-19T02:10:07;97650.13;;;20.44;30.87
77212;BME280;66206;0.000;0.000;2023-11-19T02:12:33;97648.58;;;20.43;30.86
77212;BME280;66206;0.000;0.000;2023-11-19T02:15:00;97645.19;;;20.46;30.86
77212;BME280;66206;0.000;0.000;2023-11-19T02:17:27;97645.36;;;20.48;30.77
77212;BME280;66206;0.000;0.000;2023-11-19T02:19:54;97647.54;;;20.30;30.96
77212;BME280;66206;0.000;0.000;2023-11-19T02:22:21;97645.17;;;20.33;31.07
77212;BME280;66206;0.000;0.000;2023-11-19T02:24:47;97647.56;;;20.47;30.89
77212;BME280;66206;0.000;0.000;2023-11-19T02:27:20;97654.86;;;20.38;30.86
77212;BME280;66206;0.000;0.000;2023-11-19T02:29:47;97654.32;;;20.55;30.79
77212;BME280;66206;0.000;0.000;2023-11-19T02:32:14;97649.19;;;20.39;30.85
77212;BME280;66206;0.000;0.000;2023-11-19T02:34:41;97647.72;;;20.31;30.79
77212;BME280;66206;0.000;0.000;2023-11-19T02:37:07;97645.41;;;20.49;30.86
77212;BME280;66206;0.000;0.000;2023-11-19T02:39:34;97640.10;;;20.33;30.85
77212;BME280;66206;0.000;0.000;2023-11-19T02:42:01;97640.06;;;20.45;30.83
77212;BME280;66206;0.000;0.000;2023-11-19T02:44:27;97644.70;;;20.42;30.81
77212;BME280;66206;0.000;0.000;2023-11-19T02:46:54;97646.79;;;20.42;30.81
77212;BME280;66206;0.000;0.000;2023-11-19T02:49:21;97640.14;;;20.50;30.80
77212;BME280;66206;0.000;0.000;2023-11-19T02:51:48;97637.80;;;20.31;30.85
77212;BME280;66206;0.000;0.000;2023-11-19T02:54:14;97640.83;;;20.48;30.81
77212;BME280;66206;0.000;0.000;2023-11-19T02:56:42;97643.66;;;20.46;30.88
77212;BME280;66206;0.000;0.000;2023-11-19T02:59:09;97636.59;;;20.39;30.93
77212;BME280;66206;0.000;0.000;2023-11-19T03:01:35;97635.12;;;20.47;30.81
77212;BME280;66206;0.000;0.000;2023-11-19T03:04:02;97634.23;;;20.63;30.76
77212;BME280;66206;0.000;0.000;2023-11-19T03:06:29;97626.37;;;20.25;30.92
77212;BME280;66206;0.000;0.000;2023-11-19T03:08:56;97619.46;;;20.48;30.79
77212;BME280;66206;0.000;0.000;2023-11-19T03:11:22;97622.15;;;20.52;30.88
77212;BME280;66206;0.000;0.000;2023-11-19T03:13:49;97617.95;;;20.56;30.80
77212;BME280;66206;0.000;0.000;2023-11-19T03:16:16;97622.77;;;20.51;30.82
77212;BME280;66206;0.000;0.000;2023-11-19T03:18:42;97626.56;;;20.32;30.79
77212;BME280;66206;0.000;0.000;2023-11-19T03:21:09;97620.18;;;20.55;30.83
77212;BME280;66206;0.000;0.000;2023-11-19T03:23:36;97610.22;;;20.35;30.90
77212;BME280;66206;0.000;0.000;2023-11-19T03:26:03;97602.60;;;20.45;30.89
77212;BME280;66206;0.000;0.000;2023-11-19T03:28:30;97598.01;;;20.55;30.86
77212;BME280;66206;0.000;0.000;2023-11-19T03:30:57;97604.16;;;20.52;30.79
77212;BME280;66206;0.000;0.000;2023-11-19T03:33:23;97598.61;;;20.39;30.82
77212;BME280;66206;0.000;0.000;2023-11-19T03:35:50;97606.05;;;20.32;30.90
77212;BME280;66206;0.000;0.000;2023-11-19T03:38:17;97592.93;;;20.43;30.89
77212;BME280;66206;0.000;0.000;2023-11-19T03:40:43;97566.03;;;20.35;30.94
77212;BME280;66206;0.000;0.000;2023-11-19T03:43:10;97541.89;;;20.47;30.89
77212;BME280;66206;0.000;0.000;2023-11-19T03:45:37;97537.94;;;20.35;30.89
77212;BME280;66206;0.000;0.000;2023-11-19T03:48:04;97523.07;;;20.43;30.88
77212;BME280;66206;0.000;0.000;2023-11-19T03:50:31;97504.23;;;20.46;30.74
77212;BME280;66206;0.000;0.000;2023-11-19T03:52:57;97475.05;;;20.41;30.86
77212;BME280;66206;0.000;0.000;2023-11-19T03:55:24;97462.58;;;20.51;30.80
77212;BME280;66206;0.000;0.000;2023-11-19T03:57:51;97463.54;;;20.61;30.82
77212;BME280;66206;0.000;0.000;2023-11-19T04:00:18;97463.96;;;20.30;30.92
77212;BME280;66206;0.000;0.000;2023-11-19T04:02:45;97473.16;;;20.45;30.86
77212;BME280;66206;0.000;0.000;2023-11-19T04:05:11;97478.48;;;20.28;30.98
77212;BME280;66206;0.000;0.000;2023-11-19T04:07:38;97489.16;;;20.43;30.88
77212;BME280;66206;0.000;0.000;2023-11-19T04:10:05;97507.60;;;20.35;30.93
77212;BME280;66206;0.000;0.000;2023-11-19T04:12:32;97500.49;;;20.44;30.76
77212;BME280;66206;0.000;0.000;2023-11-19T04:14:58;97498.18;;;20.51;30.78
77212;BME280;66206;0.000;0.000;2023-11-19T04:17:25;97507.12;;;20.30;30.87
77212;BME280;66206;0.000;0.000;2023-11-19T04:19:52;97527.75;;;20.45;30.90
77212;BME280;66206;0.000;0.000;2023-11-19T04:22:18;97525.54;;;20.41;30.93
77212;BME280;66206;0.000;0.000;2023-11-19T04:24:45;97522.40;;;20.29;30.87
77212;BME280;66206;0.000;0.000;2023-11-19T04:27:12;97526.03;;;20.38;30.85
77212;BME280;66206;0.000;0.000;2023-11-19T04:29:39;97531.34;;;20.48;30.82
77212;BME280;66206;0.000;0.000;2023-11-19T04:32:05;97525.17;;;20.49;30.79
77212;BME280;66206;0.000;0.000;2023-11-19T04:34:32;97529.67;;;20.36;30.91
77212;BME280;66206;0.000;0.000;2023-11-19T04:36:59;97527.18;;;20.38;30.83
77212;BME280;66206;0.000;0.000;2023-11-19T04:39:26;97530.26;;;20.30;30.90
77212;BME280;66206;0.000;0.000;2023-11-19T04:41:52;97534.95;;;20.36;30.84
77212;BME280;66206;0.000;0.000;2023-11-19T04:44:19;97534.72;;;20.45;30.77
77212;BME280;66206;0.000;0.000;2023-11-19T04:46:46;97533.09;;;20.35;30.94
77212;BME280;66206;0.000;0.000;2023-11-19T04:49:13;97527.71;;;20.46;30.95
77212;BME280;66206;0.000;0.000;2023-11-19T04:51:40;97527.64;;;20.47;30.79
77212;BME280;66206;0.000;0.000;2023-11-19T04:54:07;97525.01;;;20.44;30.83
77212;BME280;66206;0.000;0.000;2023-11-19T04:56:34;97523.11;;;20.45;30.86
77212;BME280;66206;0.000;0.000;2023-11-19T04:59:01;97524.82;;;20.57;30.79
77212;BME280;66206;0.000;0.000;2023-11-19T05:01:27;97529.52;;;20.36;30.96
77212;BME280;66206;0.000;0.000;2023-11-19T05:03:55;97530.72;;;20.39;30.90
77212;BME280;66206;0.000;0.000;2023-11-19T05:06:22;97527.34;;;20.45;30.82
77212;BME280;66206;0.000;0.000;2023-11-19T05:08:49;97524.28;;;20.51;30.80
77212;BME280;66206;0.000;0.000;2023-11-19T05:11:16;97522.39;;;20.49;30.84
77212;BME280;66206;0.000;0.000;2023-11-19T05:13:42;97520.27;;;20.52;30.90
77212;BME280;66206;0.000;0.000;2023-11-19T05:16:09;97518.05;;;20.46;30.80
77212;BME280;66206;0.000;0.000;2023-11-19T05:18:36;97520.68;;;20.35;30.87
77212;BME280;66206;0.000;0.000;2023-11-19T05:21:02;97512.32;;;20.31;30.93
77212;BME280;66206;0.000;0.000;2023-11-19T05:23:29;97511.16;;;20.54;30.77
77212;BME280;66206;0.000;0.000;2023-11-19T05:25:56;97510.90;;;20.27;30.92
77212;BME280;66206;0.000;0.000;2023-11-19T05:28:23;97506.46;;;20.38;30.84
77212;BME280;66206;0.000;0.000;2023-11-19T05:30:49;97497.21;;;20.45;30.86
77212;BME280;66206;0.000;0.000;2023-11-19T05:33:16;97496.37;;;20.43;30.85
77212;BME280;66206;0.000;0.000;2023-11-19T05:35:43;97500.33;;;20.29;30.90
77212;BME280;66206;0.000;0.000;2023-11-19T05:38:10;97496.55;;;20.40;30.84
77212;BME280;66206;0.000;0.000;2023-11-19T05:40:36;97493.92;;;20.52;30.85
77212;BME280;66206;0.000;0.000;2023-11-19T05:43:03;97491.09;;;20.47;30.90
77212;BME280;66206;0.000;0.000;2023-11-19T05:45:30;97481.30;;;20.41;30.93
77212;BME280;66206;0.000;0.000;2023-11-19T05:47:56;97485.99;;;20.40;30.89
77212;BME280;66206;0.000;0.000;2023-11-19T05:50:23;97487.05;;;20.36;30.92
77212;BME280;66206;0.000;0.000;2023-11-19T05:52:50;97479.49;;;20.44;30.85
77212;BME280;66206;0.000;0.000;2023-11-19T05:55:16;97477.86;;;20.44;30.95
77212;BME280;66206;0.000;0.000;2023-11-19T05:57:43;97475.04;;;20.49;30.79
77212;BME280;66206;0.000;0.000;2023-11-19T06:00:10;97470.01;;;20.50;30.85
77212;BME280;66206;0.000;0.000;2023-11-19T06:02:37;97475.28;;;20.28;30.83
77212;BME280;66206;0.000;0.000;2023-11-19T06:05:04;97474.96;;;20.46;30.95
77212;BME280;66206;0.000;0.000;2023-11-19T06:07:31;97472.67;;;20.55;30.90
77212;BME280;66206;0.000;0.000;2023-11-19T06:09:58;97479.13;;;20.39;30.92
77212;BME280;66206;0.000;0.000;2023-11-19T06:12:25;97486.55;;;20.30;30.94
77212;BME280;66206;0.000;0.000;2023-11-19T06:14:51;97488.00;;;20.28;30.96
77212;BME280;66206;0.000;0.000;2023-11-19T06:17:18;97484.83;;;20.43;30.92
77212;BME280;66206;0.000;0.000;2023-11-19T06:19:45;97483.99;;;20.55;30.88
77212;BME280;66206;0.000;0.000;2023-11-19T06:22:11;97483.67;;;20.30;31.03
77212;BME280;66206;0.000;0.000;2023-11-19T06:24:38;97483.67;;;20.20;31.09
77212;BME280;66206;0.000;0.000;2023-11-19T06:27:05;97484.47;;;20.36;30.96
77212;BME280;66206;0.000;0.000;2023-11-19T06:29:31;97489.75;;;20.35;31.00
77212;BME280;66206;0.000;0.000;2023-11-19T06:31:58;97487.52;;;20.47;30.92
77212;BME280;66206;0.000;0.000;2023-11-19T06:34:25;97485.92;;;20.43;30.89
77212;BME280;66206;0.000;0.000;2023-11-19T06:36:52;97489.12;;;20.48;30.87
77212;BME280;66206;0.000;0.000;2023-11-19T06:39:18;97486.89;;;20.37;30.95
77212;BME280;66206;0.000;0.000;2023-11-19T06:41:45;97481.52;;;20.45;30.87
77212;BME280;66206;0.000;0.000;2023-11-19T06:44:12;97482.99;;;20.47;30.89
77212;BME280;66206;0.000;0.000;2023-11-19T06:46:39;97483.64;;;20.32;30.95
77212;BME280;66206;0.000;0.000;2023-11-19T06:49:05;97479.06;;;20.40;30.95
77212;BME280;66206;0.000;0.000;2023-11-19T06:51:32;97478.63;;;20.25;31.02
77212;BME280;66206;0.000;0.000;2023-11-19T06:53:59;97479.12;;;20.40;30.93
77212;BME280;66206;0.000;0.000;2023-11-19T06:56:26;97477.77;;;20.54;30.87
77212;BME280;66206;0.000;0.000;2023-11-19T06:58:53;97477.87;;;20.32;30.93
77212;BME280;66206;0.000;0.000;2023-11-19T07:01:19;97478.35;;;20.36;31.01
77212;BME280;66206;0.000;0.000;2023-11-19T07:03:47;97484.53;;;20.54;30.94
77212;BME280;66206;0.000;0.000;2023-11-19T07:06:13;97487.34;;;20.45;30.90
77212;BME280;66206;0.000;0.000;2023-11-19T07:08:41;97486.58;;;20.49;30.85
77212;BME280;66206;0.000;0.000;2023-11-19T07:11:07;97483.84;;;20.33;30.93
77212;BME280;66206;0.000;0.000;2023-11-19T07:13:34;97486.92;;;20.33;30.95
77212;BME280;66206;0.000;0.000;2023-11-19T07:16:01;97485.46;;;20.50;30.92
77212;BME280;66206;0.000;0.000;2023-11-19T07:18:27;97483.12;;;20.28;30.92
77212;BME280;66206;0.000;0.000;2023-11-19T07:20:54;97482.06;;;20.52;30.89
77212;BME280;66206;0.000;0.000;2023-11-19T07:23:21;97485.37;;;20.44;30.99
77212;BME280;66206;0.000;0.000;2023-11-19T07:25:47;97486.50;;;20.46;30.92
77212;BME280;66206;0.000;0.000;2023-11-19T07:28:14;97489.82;;;20.48;30.88
77212;BME280;66206;0.000;0.000;2023-11-19T07:30:41;97495.61;;;20.35;30.93
77212;BME280;66206;0.000;0.000;2023-11-19T07:33:08;97498.24;;;20.19;31.13
77212;BME280;66206;0.000;0.000;2023-11-19T07:35:34;97500.72;;;20.43;30.93
77212;BME280;66206;0.000;0.000;2023-11-19T07:38:01;97504.15;;;20.42;30.91
77212;BME280;66206;0.000;0.000;2023-11-19T07:40:28;97501.97;;;20.25;30.98
77212;BME280;66206;0.000;0.000;2023-11-19T07:42:54;97505.88;;;20.41;31.03
77212;BME280;66206;0.000;0.000;2023-11-19T07:45:21;97505.88;;;20.37;31.03
77212;BME280;66206;0.000;0.000;2023-11-19T07:47:48;97501.83;;;20.45;30.94
77212;BME280;66206;0.000;0.000;2023-11-19T07:50:15;97503.27;;;20.43;30.90
77212;BME280;66206;0.000;0.000;2023-11-19T07:52:41;97504.75;;;20.41;31.05
77212;BME280;66206;0.000;0.000;2023-11-19T07:55:08;97506.38;;;20.43;30.96
77212;BME280;66206;0.000;0.000;2023-11-19T07:57:35;97505.93;;;20.34;30.98
77212;BME280;66206;0.000;0.000;2023-11-19T08:00:02;97508.84;;;20.38;30.87
77212;BME280;66206;0.000;0.000;2023-11-19T08:02:28;97507.85;;;20.43;30.87
77212;BME280;66206;0.000;0.000;2023-11-19T08:04:55;97507.25;;;20.41;30.93
77212;BME280;66206;0.000;0.000;2023-11-19T08:07:22;97505.39;;;20.47;30.97
77212;BME280;66206;0.000;0.000;2023-11-19T08:09:49;97507.85;;;20.48;30.91
77212;BME280;66206;0.000;0.000;2023-11-19T08:12:15;97507.43;;;20.30;30.90
77212;BME280;66206;0.000;0.000;2023-11-19T08:14:42;97516.63;;;20.40;31.02
77212;BME280;66206;0.000;0.000;2023-11-19T08:17:09;97507.15;;;20.47;30.96
77212;BME280;66206;0.000;0.000;2023-11-19T08:19:36;97503.05;;;20.49;30.92
77212;BME280;66206;0.000;0.000;2023-11-19T08:22:03;97500.85;;;20.47;30.92
77212;BME280;66206;0.000;0.000;2023-11-19T08:24:29;97504.88;;;20.27;31.12
77212;BME280;66206;0.000;0.000;2023-11-19T08:26:56;97505.63;;;20.44;30.91
77212;BME280;66206;0.000;0.000;2023-11-19T08:29:23;97492.51;;;20.42;30.95
77212;BME280;66206;0.000;0.000;2023-11-19T08:31:49;97489.96;;;20.49;30.92
77212;BME280;66206;0.000;0.000;2023-11-19T08:34:16;97490.69;;;20.23;31.05
77212;BME280;66206;0.000;0.000;2023-11-19T08:36:43;97492.81;;;20.45;31.02
77212;BME280;66206;0.000;0.000;2023-11-19T08:39:10;97490.62;;;20.53;30.98
77212;BME280;66206;0.000;0.000;2023-11-19T08:41:36;97491.88;;;20.30;31.03
77212;BME280;66206;0.000;0.000;2023-11-19T08:44:03;97492.02;;;20.48;31.00
77212;BME280;66206;0.000;0.000;2023-11-19T08:46:30;97492.26;;;20.47;31.01
77212;BME280;66206;0.000;0.000;2023-11-19T08:48:57;97494.91;;;20.41;30.99
77212;BME280;66206;0.000;0.000;2023-11-19T08:51:24;97497.67;;;20.44;31.00
77212;BME280;66206;0.000;0.000;2023-11-19T08:53:51;97493.80;;;20.36;30.98
77212;BME280;66206;0.000;0.000;2023-11-19T08:56:18;97490.39;;;20.39;30.99
77212;BME280;66206;0.000;0.000;2023-11-19T08:58:44;97491.48;;;20.46;30.97
77212;BME280;66206;0.000;0.000;2023-11-19T09:01:11;97487.67;;;20.38;31.11
77212;BME280;66206;0.000;0.000;2023-11-19T09:03:38;97488.04;;;20.47;30.92
77212;BME280;66206;0.000;0.000;2023-11-19T09:06:05;97480.42;;;20.46;31.03
77212;BME280;66206;0.000;0.000;2023-11-19T09:08:32;97481.66;;;20.38;31.13
77212;BME280;66206;0.000;0.000;2023-11-19T09:10:59;97476.07;;;20.52;30.91
77212;BME280;66206;0.000;0.000;2023-11-19T09:13:25;97477.58;;;20.22;31.22
77212;BME280;66206;0.000;0.000;2023-11-19T09:15:52;97479.11;;;20.29;31.05
77212;BME280;66206;0.000;0.000;2023-11-19T09:18:19;97487.52;;;20.40;31.06
77212;BME280;66206;0.000;0.000;2023-11-19T09:20:45;97496.39;;;20.40;30.92
77212;BME280;66206;0.000;0.000;2023-11-19T09:23:12;97506.24;;;20.29;30.99
77212;BME280;66206;0.000;0.000;2023-11-19T09:25:39;97507.29;;;20.49;31.03
77212;BME280;66206;0.000;0.000;2023-11-19T09:28:05;97509.08;;;20.40;31.03
77212;BME280;66206;0.000;0.000;2023-11-19T09:30:32;97505.86;;;20.53;30.94
77212;BME280;66206;0.000;0.000;2023-11-19T09:32:59;97517.11;;;20.38;31.02
77212;BME280;66206;0.000;0.000;2023-11-19T09:35:26;97516.72;;;20.42;30.99
77212;BME280;66206;0.000;0.000;2023-11-19T09:37:52;97518.36;;;20.42;31.07
77212;BME280;66206;0.000;0.000;2023-11-19T09:40:19;97525.72;;;20.26;31.09
77212;BME280;66206;0.000;0.000;2023-11-19T09:42:47;97519.81;;;20.26;31.11
77212;BME280;66206;0.000;0.000;2023-11-19T09:45:14;97524.79;;;20.47;30.88
77212;BME280;66206;0.000;0.000;2023-11-19T09:47:42;97522.34;;;20.29;31.03
77212;BME280;66206;0.000;0.000;2023-11-19T09:50:10;97519.14;;;20.34;31.15
77212;BME280;66206;0.000;0.000;2023-11-19T09:52:39;97523.47;;;20.41;31.02
77212;BME280;66206;0.000;0.000;2023-11-19T09:55:06;97527.13;;;20.36;31.08
77212;BME280;66206;0.000;0.000;2023-11-19T09:57:32;97520.31;;;20.28;31.04
77212;BME280;66206;0.000;0.000;2023-11-19T10:00:01;97506.99;;;20.45;30.96
77212;BME280;66206;0.000;0.000;2023-11-19T10:02:28;97512.73;;;20.51;30.97
77212;BME280;66206;0.000;0.000;2023-11-19T10:04:57;97508.22;;;20.36;31.09
77212;BME280;66206;0.000;0.000;2023-11-19T10:07:25;97504.92;;;20.33;31.11
77212;BME280;66206;0.000;0.000;2023-11-19T10:09:51;97500.67;;;20.47;31.07
77212;BME280;66206;0.000;0.000;2023-11-19T10:12:18;97495.35;;;20.34;31.13
77212;BME280;66206;0.000;0.000;2023-11-19T10:14:45;97494.81;;;20.32;31.03
77212;BME280;66206;0.000;0.000;2023-11-19T10:17:12;97494.71;;;20.44;31.04
77212;BME280;66206;0.000;0.000;2023-11-19T10:19:39;97497.46;;;20.37;31.03
77212;BME280;66206;0.000;0.000;2023-11-19T10:22:06;97495.57;;;20.55;30.90
77212;BME280;66206;0.000;0.000;2023-11-19T10:24:33;97496.69;;;20.57;31.04
77212;BME280;66206;0.000;0.000;2023-11-19T10:27:00;97492.33;;;20.36;31.06
77212;BME280;66206;0.000;0.000;2023-11-19T10:29:27;97493.49;;;20.37;31.17
77212;BME280;66206;0.000;0.000;2023-11-19T10:31:56;97489.38;;;20.45;31.11
77212;BME280;66206;0.000;0.000;2023-11-19T10:34:24;97487.76;;;20.51;31.10
77212;BME280;66206;0.000;0.000;2023-11-19T10:36:51;97489.49;;;20.44;31.16
77212;BME280;66206;0.000;0.000;2023-11-19T10:39:18;97489.49;;;20.52;31.12
77212;BME280;66206;0.000;0.000;2023-11-19T10:41:44;97494.30;;;20.53;31.10
77212;BME280;66206;0.000;0.000;2023-11-19T10:44:11;97494.42;;;20.42;31.13
77212;BME280;66206;0.000;0.000;2023-11-19T10:46:38;97490.13;;;20.48;31.08
77212;BME280;66206;0.000;0.000;2023-11-19T10:49:05;97501.97;;;20.33;31.14
77212;BME280;66206;0.000;0.000;2023-11-19T10:51:32;97494.46;;;20.38;31.19
77212;BME280;66206;0.000;0.000;2023-11-19T10:54:01;97487.44;;;20.33;31.19
77212;BME280;66206;0.000;0.000;2023-11-19T10:56:29;97491.86;;;20.35;31.16
77212;BME280;66206;0.000;0.000;2023-11-19T10:58:57;97487.19;;;20.34;31.13
77212;BME280;66206;0.000;0.000;2023-11-19T11:01:26;97488.50;;;20.38;31.16
77212;BME280;66206;0.000;0.000;2023-11-19T11:03:54;97488.53;;;20.23;31.25
77212;BME280;66206;0.000;0.000;2023-11-19T11:06:21;97485.90;;;20.40;31.17
77212;BME280;66206;0.000;0.000;2023-11-19T11:08:49;97483.66;;;20.24;31.14
77212;BME280;66206;0.000;0.000;2023-11-19T11:11:16;97488.06;;;20.28;31.30
77212;BME280;66206;0.000;0.000;2023-11-19T11:13:43;97494.00;;;20.53;31.06
77212;BME280;66206;0.000;0.000;2023-11-19T11:16:10;97494.07;;;20.46;31.47
77212;BME280;66206;0.000;0.000;2023-11-19T11:18:37;97484.69;;;20.40;31.51
77212;BME280;66206;0.000;0.000;2023-11-19T11:21:05;97480.05;;;20.65;31.62
77212;BME280;66206;0.000;0.000;2023-11-19T11:23:37;97474.10;;;20.66;31.60
77212;BME280;66206;0.000;0.000;2023-11-19T11:26:05;97473.17;;;20.73;31.69
77212;BME280;66206;0.000;0.000;2023-11-19T11:28:29;97467.47;;;20.93;31.92
77212;BME280;66206;0.000;0.000;2023-11-19T11:33:26;97466.12;;;20.15;32.53
77212;BME280;66206;0.000;0.000;2023-11-19T11:35:53;97459.70;;;20.22;32.74
77212;BME280;66206;0.000;0.000;2023-11-19T11:38:22;97460.03;;;20.43;32.39
77212;BME280;66206;0.000;0.000;2023-11-19T11:41:14;97456.78;;;20.23;32.62
77212;BME280;66206;0.000;0.000;2023-11-19T11:43:48;97454.39;;;20.66;32.16
77212;BME280;66206;0.000;0.000;2023-11-19T11:45:44;97450.41;;;20.08;32.85
77212;BME280;66206;0.000;0.000;2023-11-19T11:48:11;97455.49;;;19.87;33.01
77212;BME280;66206;0.000;0.000;2023-11-19T11:50:55;97451.97;;;20.10;32.93
77212;BME280;66206;0.000;0.000;2023-11-19T11:53:15;97449.60;;;20.21;32.71
77212;BME280;66206;0.000;0.000;2023-11-19T11:55:37;97453.16;;;19.71;33.27
77212;BME280;66206;0.000;0.000;2023-11-19T11:58:02;97453.72;;;19.57;33.53
77212;BME280;66206;0.000;0.000;2023-11-19T12:00:29;97443.73;;;19.73;33.41
77212;BME280;66206;0.000;0.000;2023-11-19T12:02:57;97445.90;;;19.42;33.75
77212;BME280;66206;0.000;0.000;2023-11-19T12:05:25;97440.66;;;19.56;33.56
77212;BME280;66206;0.000;0.000;2023-11-19T12:07:54;97435.92;;;19.40;33.92
77212;BME280;66206;0.000;0.000;2023-11-19T12:10:21;97433.70;;;19.67;33.68
77212;BME280;66206;0.000;0.000;2023-11-19T12:12:48;97435.86;;;19.65;33.83
77212;BME280;66206;0.000;0.000;2023-11-19T12:15:14;97431.71;;;19.41;34.03
77212;BME280;66206;0.000;0.000;2023-11-19T12:17:42;97428.66;;;19.64;33.78
77212;BME280;66206;0.000;0.000;2023-11-19T12:20:09;97426.13;;;19.73;33.21
77212;BME280;66206;0.000;0.000;2023-11-19T12:22:37;97419.36;;;20.17;32.74
77212;BME280;66206;0.000;0.000;2023-11-19T12:25:04;97421.18;;;20.11;32.79
77212;BME280;66206;0.000;0.000;2023-11-19T12:27:31;97418.68;;;20.54;32.27
77212;BME280;66206;0.000;0.000;2023-11-19T12:29:58;97415.88;;;20.33;32.56
77212;BME280;66206;0.000;0.000;2023-11-19T12:32:25;97412.66;;;20.34;32.59
77212;BME280;66206;0.000;0.000;2023-11-19T12:34:52;97417.05;;;21.29;31.41
77212;BME280;66206;0.000;0.000;2023-11-19T12:37:18;97411.65;;;21.09;31.67
77212;BME280;66206;0.000;0.000;2023-11-19T12:39:45;97408.21;;;20.85;31.79
77212;BME280;66206;0.000;0.000;2023-11-19T12:42:12;97412.09;;;20.88;31.79
77212;BME280;66206;0.000;0.000;2023-11-19T12:44:38;97405.60;;;20.77;31.98
77212;BME280;66206;0.000;0.000;2023-11-19T12:47:06;97406.53;;;20.74;32.06
77212;BME280;66206;0.000;0.000;2023-11-19T12:49:33;97407.05;;;20.98;31.90
77212;BME280;66206;0.000;0.000;2023-11-19T12:51:59;97405.01;;;20.80;32.12
77212;BME280;66206;0.000;0.000;2023-11-19T12:54:34;97404.26;;;20.65;32.14
77212;BME280;66206;0.000;0.000;2023-11-19T12:56:56;97402.67;;;20.66;32.02
77212;BME280;66206;0.000;0.000;2023-11-19T12:59:23;97399.71;;;20.62;32.21
77212;BME280;66206;0.000;0.000;2023-11-19T13:01:57;97395.68;;;20.42;32.31
77212;BME280;66206;0.000;0.000;2023-11-19T13:04:18;97405.30;;;20.56;32.18
77212;BME280;66206;0.000;0.000;2023-11-19T13:06:45;97402.08;;;20.62;32.20
77212;BME280;66206;0.000;0.000;2023-11-19T13:09:21;97400.15;;;20.63;32.15